EJU18HY LFPO-LIMC
Flight info
| Callsign | EJU18HY |
|---|---|
| Flight time | 1h 2m |
| Altitude | 31000 |
| Route | BUBLI DCT LUVAL DCT SHARA DCT DEVDI DCT BASGO Z424 RIXUV |
| Aircraft | A320/M-SDE3FGHIRWY/LB1 |
Departure
| Time | 2026-05-04 17:00 |
|---|---|
| Airport | Paris-Orly Airport (LFPO) |
Arrival
| Time | 2026-05-04 18:02 |
|---|---|
| Airport | Milan Malpensa International Airport (LIMC) |
| Time | Latitude | Longitude | Altitude | Speed | Heading |
|---|---|---|---|---|---|
| 2026-05-04 16:21 | 48.72843 | 2.35753 | 300 ft | 0 kts | 14° |
| 2026-05-04 16:50 | 48.72809 | 2.35740 | 303 ft | 2 kts | 14° |
| 2026-05-04 16:51 | 48.72780 | 2.35686 | 303 ft | 4 kts | 75° |
| 2026-05-04 16:51 | 48.72776 | 2.35646 | 303 ft | 4 kts | 95° |
| 2026-05-04 16:51 | 48.72802 | 2.35582 | 303 ft | 4 kts | 161° |
| 2026-05-04 16:52 | 48.72826 | 2.35571 | 302 ft | 0 kts | 164° |
| 2026-05-04 16:54 | 48.72818 | 2.35574 | 302 ft | 2 kts | 164° |
| 2026-05-04 16:55 | 48.72746 | 2.35521 | 299 ft | 6 kts | 246° |
| 2026-05-04 16:55 | 48.72656 | 2.35517 | 300 ft | 8 kts | 168° |
| 2026-05-04 16:56 | 48.72606 | 2.35537 | 300 ft | 3 kts | 164° |
| 2026-05-04 16:56 | 48.72364 | 2.35638 | 299 ft | 12 kts | 169° |
| 2026-05-04 16:57 | 48.72302 | 2.35622 | 300 ft | 8 kts | 199° |
| 2026-05-04 16:57 | 48.72159 | 2.35629 | 300 ft | 14 kts | 165° |
| 2026-05-04 16:58 | 48.72014 | 2.35794 | 304 ft | 12 kts | 126° |
| 2026-05-04 16:58 | 48.71969 | 2.35913 | 299 ft | 10 kts | 114° |
| 2026-05-04 16:59 | 48.72097 | 2.36707 | 303 ft | 98 kts | 74° |
| 2026-05-04 17:00 | 48.73302 | 2.43246 | 2114 ft | 173 kts | 79° |
| 2026-05-04 17:00 | 48.74128 | 2.48716 | 3804 ft | 191 kts | 89° |
| 2026-05-04 17:01 | 48.74273 | 2.53122 | 4383 ft | 232 kts | 91° |
| 2026-05-04 17:01 | 48.74514 | 2.58610 | 5064 ft | 281 kts | 85° |
| 2026-05-04 17:02 | 48.75072 | 2.64560 | 6825 ft | 290 kts | 83° |
| 2026-05-04 17:02 | 48.75722 | 2.70680 | 8170 ft | 306 kts | 83° |
| 2026-05-04 17:03 | 48.76053 | 2.73842 | 9150 ft | 304 kts | 83° |
| 2026-05-04 17:03 | 48.76382 | 2.77015 | 10013 ft | 307 kts | 83° |
| 2026-05-04 17:03 | 48.77072 | 2.83851 | 10734 ft | 348 kts | 83° |
| 2026-05-04 17:04 | 48.77810 | 2.91232 | 12135 ft | 359 kts | 83° |
| 2026-05-04 17:04 | 48.78561 | 2.98822 | 13605 ft | 368 kts | 83° |
| 2026-05-04 17:05 | 48.78171 | 3.06455 | 14865 ft | 367 kts | 111° |
| 2026-05-04 17:05 | 48.76613 | 3.13892 | 16187 ft | 373 kts | 111° |
| 2026-05-04 17:06 | 48.74997 | 3.21432 | 17486 ft | 379 kts | 111° |
| 2026-05-04 17:06 | 48.74193 | 3.25250 | 18124 ft | 382 kts | 111° |
| 2026-05-04 17:07 | 48.72567 | 3.32998 | 19233 ft | 389 kts | 111° |
| 2026-05-04 17:07 | 48.72020 | 3.35591 | 19593 ft | 391 kts | 111° |
| 2026-05-04 17:07 | 48.70903 | 3.40872 | 20307 ft | 396 kts | 111° |
| 2026-05-04 17:07 | 48.70071 | 3.44798 | 20823 ft | 399 kts | 112° |
| 2026-05-04 17:08 | 48.69219 | 3.48808 | 21337 ft | 402 kts | 112° |
| 2026-05-04 17:08 | 48.67484 | 3.56935 | 22336 ft | 409 kts | 112° |
| 2026-05-04 17:08 | 48.66606 | 3.61038 | 22859 ft | 412 kts | 112° |
| 2026-05-04 17:09 | 48.65721 | 3.65172 | 23328 ft | 415 kts | 112° |
| 2026-05-04 17:09 | 48.64822 | 3.69350 | 23749 ft | 418 kts | 112° |
| 2026-05-04 17:09 | 48.63920 | 3.73542 | 24170 ft | 421 kts | 112° |
| 2026-05-04 17:10 | 48.62094 | 3.82007 | 24978 ft | 426 kts | 112° |
| 2026-05-04 17:10 | 48.59297 | 3.94854 | 26159 ft | 432 kts | 113° |
| 2026-05-04 17:11 | 48.58354 | 3.99172 | 26547 ft | 435 kts | 113° |
| 2026-05-04 17:11 | 48.57404 | 4.03509 | 26943 ft | 437 kts | 113° |
| 2026-05-04 17:11 | 48.55482 | 4.12259 | 27720 ft | 441 kts | 114° |
| 2026-05-04 17:12 | 48.54513 | 4.16658 | 28125 ft | 443 kts | 114° |
| 2026-05-04 17:12 | 48.52562 | 4.25537 | 28850 ft | 448 kts | 114° |
| 2026-05-04 17:13 | 48.49599 | 4.38936 | 29899 ft | 454 kts | 114° |
| 2026-05-04 17:14 | 48.46537 | 4.52572 | 30697 ft | 461 kts | 114° |
| 2026-05-04 17:14 | 48.45507 | 4.57154 | 30945 ft | 463 kts | 114° |
| 2026-05-04 17:14 | 48.43438 | 4.66392 | 31513 ft | 466 kts | 114° |
| 2026-05-04 17:15 | 48.42405 | 4.71003 | 31886 ft | 465 kts | 114° |
| 2026-05-04 17:15 | 48.40321 | 4.80205 | 32607 ft | 464 kts | 114° |
| 2026-05-04 17:16 | 48.38231 | 4.89367 | 33355 ft | 462 kts | 114° |
| 2026-05-04 17:16 | 48.35100 | 5.03019 | 34374 ft | 459 kts | 114° |
| 2026-05-04 17:17 | 48.34060 | 5.07550 | 34677 ft | 459 kts | 114° |
| 2026-05-04 17:17 | 48.30948 | 5.21081 | 34964 ft | 452 kts | 114° |
| 2026-05-04 17:18 | 48.29921 | 5.25526 | 34964 ft | 450 kts | 114° |
| 2026-05-04 17:19 | 48.25787 | 5.43242 | 34973 ft | 449 kts | 114° |
| 2026-05-04 17:20 | 48.21665 | 5.60860 | 34986 ft | 449 kts | 114° |
| 2026-05-04 17:20 | 48.18517 | 5.74116 | 34993 ft | 448 kts | 115° |
| 2026-05-04 17:21 | 48.14351 | 5.91637 | 34993 ft | 448 kts | 114° |
| 2026-05-04 17:22 | 48.12254 | 6.00396 | 34994 ft | 447 kts | 114° |
| 2026-05-04 17:23 | 48.08034 | 6.17909 | 35000 ft | 447 kts | 115° |
| 2026-05-04 17:24 | 48.04855 | 6.31018 | 35014 ft | 447 kts | 115° |
| 2026-05-04 17:25 | 48.00602 | 6.48405 | 35007 ft | 447 kts | 115° |
| 2026-05-04 17:26 | 47.94866 | 6.64267 | 34998 ft | 425 kts | 148° |
| 2026-05-04 17:27 | 47.82599 | 6.76344 | 34994 ft | 423 kts | 151° |
| 2026-05-04 17:28 | 47.72750 | 6.85990 | 34994 ft | 425 kts | 151° |
| 2026-05-04 17:29 | 47.58032 | 7.00714 | 34981 ft | 426 kts | 150° |
| 2026-05-04 17:31 | 47.48125 | 7.10568 | 34988 ft | 427 kts | 150° |
| 2026-05-04 17:32 | 47.35791 | 7.22751 | 35005 ft | 427 kts | 150° |
| 2026-05-04 17:33 | 47.25910 | 7.32467 | 35004 ft | 427 kts | 150° |
| 2026-05-04 17:34 | 47.16029 | 7.42140 | 35006 ft | 428 kts | 151° |
| 2026-05-04 17:35 | 47.03599 | 7.54238 | 35010 ft | 429 kts | 151° |
| 2026-05-04 17:36 | 46.98615 | 7.59063 | 35010 ft | 429 kts | 151° |
| 2026-05-04 17:36 | 46.93640 | 7.63885 | 35009 ft | 429 kts | 151° |
| 2026-05-04 17:37 | 46.88651 | 7.68712 | 35007 ft | 430 kts | 151° |
| 2026-05-04 17:37 | 46.83653 | 7.73522 | 35001 ft | 430 kts | 151° |
| 2026-05-04 17:37 | 46.81147 | 7.75927 | 34811 ft | 432 kts | 151° |
| 2026-05-04 17:38 | 46.78646 | 7.78327 | 34579 ft | 432 kts | 151° |
| 2026-05-04 17:38 | 46.76126 | 7.80744 | 34296 ft | 430 kts | 151° |
| 2026-05-04 17:38 | 46.73629 | 7.83139 | 33737 ft | 427 kts | 151° |
| 2026-05-04 17:38 | 46.71159 | 7.85509 | 33211 ft | 424 kts | 151° |
| 2026-05-04 17:39 | 46.66275 | 7.90191 | 32162 ft | 416 kts | 150° |
| 2026-05-04 17:39 | 46.63871 | 7.92488 | 31650 ft | 412 kts | 150° |
| 2026-05-04 17:39 | 46.61486 | 7.94758 | 31137 ft | 408 kts | 150° |
| 2026-05-04 17:40 | 46.59116 | 7.97011 | 30641 ft | 405 kts | 150° |
| 2026-05-04 17:40 | 46.56722 | 7.99278 | 30135 ft | 415 kts | 150° |
| 2026-05-04 17:40 | 46.54305 | 8.01566 | 29604 ft | 415 kts | 150° |
| 2026-05-04 17:40 | 46.52706 | 8.03082 | 29271 ft | 414 kts | 150° |
| 2026-05-04 17:41 | 46.50298 | 8.05367 | 28786 ft | 411 kts | 150° |
| 2026-05-04 17:41 | 46.47911 | 8.07630 | 28310 ft | 409 kts | 150° |
| 2026-05-04 17:41 | 46.45540 | 8.09878 | 27848 ft | 406 kts | 150° |
| 2026-05-04 17:41 | 46.43185 | 8.12110 | 27394 ft | 404 kts | 150° |
| 2026-05-04 17:42 | 46.40835 | 8.14334 | 26972 ft | 402 kts | 150° |
| 2026-05-04 17:42 | 46.38505 | 8.16537 | 26516 ft | 399 kts | 150° |
| 2026-05-04 17:42 | 46.36186 | 8.18721 | 26076 ft | 397 kts | 150° |
| 2026-05-04 17:42 | 46.33872 | 8.20897 | 25633 ft | 395 kts | 150° |
| 2026-05-04 17:43 | 46.31579 | 8.23053 | 25167 ft | 392 kts | 150° |
| 2026-05-04 17:43 | 46.29300 | 8.25192 | 24700 ft | 390 kts | 150° |
| 2026-05-04 17:43 | 46.27026 | 8.27323 | 24222 ft | 388 kts | 150° |
| 2026-05-04 17:43 | 46.24772 | 8.29432 | 23742 ft | 385 kts | 150° |
| 2026-05-04 17:44 | 46.22530 | 8.31527 | 23197 ft | 383 kts | 150° |
| 2026-05-04 17:44 | 46.20325 | 8.33590 | 22718 ft | 381 kts | 150° |
| 2026-05-04 17:44 | 46.18112 | 8.35665 | 22231 ft | 379 kts | 150° |
| 2026-05-04 17:44 | 46.15881 | 8.37758 | 21740 ft | 377 kts | 150° |
| 2026-05-04 17:45 | 46.13712 | 8.39787 | 21257 ft | 375 kts | 150° |
| 2026-05-04 17:45 | 46.11529 | 8.41822 | 20787 ft | 373 kts | 150° |
| 2026-05-04 17:45 | 46.09356 | 8.43843 | 20316 ft | 371 kts | 150° |
| 2026-05-04 17:45 | 46.07187 | 8.45858 | 19842 ft | 370 kts | 150° |
| 2026-05-04 17:46 | 46.05032 | 8.47860 | 19377 ft | 368 kts | 150° |
| 2026-05-04 17:46 | 46.02887 | 8.49850 | 18924 ft | 367 kts | 151° |
| 2026-05-04 17:46 | 46.00744 | 8.51835 | 18448 ft | 365 kts | 151° |
| 2026-05-04 17:46 | 45.98618 | 8.53809 | 17967 ft | 363 kts | 150° |
| 2026-05-04 17:47 | 45.96499 | 8.55772 | 17518 ft | 360 kts | 151° |
| 2026-05-04 17:47 | 45.94589 | 8.57537 | 17112 ft | 357 kts | 151° |
| 2026-05-04 17:47 | 45.92505 | 8.59458 | 16670 ft | 355 kts | 151° |
| 2026-05-04 17:47 | 45.90433 | 8.61373 | 16238 ft | 352 kts | 150° |
| 2026-05-04 17:48 | 45.88378 | 8.63272 | 15816 ft | 350 kts | 150° |
| 2026-05-04 17:48 | 45.86341 | 8.65153 | 15404 ft | 348 kts | 150° |
| 2026-05-04 17:48 | 45.84306 | 8.67028 | 14956 ft | 346 kts | 150° |
| 2026-05-04 17:48 | 45.82291 | 8.68883 | 14546 ft | 343 kts | 150° |
| 2026-05-04 17:49 | 45.80288 | 8.70724 | 14133 ft | 341 kts | 150° |
| 2026-05-04 17:49 | 45.78290 | 8.72560 | 13685 ft | 339 kts | 150° |
| 2026-05-04 17:49 | 45.76315 | 8.74374 | 13267 ft | 336 kts | 150° |
| 2026-05-04 17:49 | 45.74356 | 8.76170 | 12772 ft | 334 kts | 150° |
| 2026-05-04 17:50 | 45.72423 | 8.77942 | 12251 ft | 323 kts | 150° |
| 2026-05-04 17:50 | 45.70573 | 8.79641 | 11736 ft | 310 kts | 150° |
| 2026-05-04 17:50 | 45.68788 | 8.81275 | 11242 ft | 300 kts | 150° |
| 2026-05-04 17:50 | 45.67062 | 8.82850 | 10786 ft | 289 kts | 150° |
| 2026-05-04 17:51 | 45.65393 | 8.84370 | 10351 ft | 279 kts | 151° |
| 2026-05-04 17:51 | 45.63768 | 8.85848 | 9919 ft | 277 kts | 149° |
| 2026-05-04 17:51 | 45.62123 | 8.87276 | 9510 ft | 276 kts | 156° |
| 2026-05-04 17:51 | 45.60308 | 8.88096 | 9113 ft | 273 kts | 170° |
| 2026-05-04 17:52 | 45.58473 | 8.88587 | 8730 ft | 272 kts | 169° |
| 2026-05-04 17:52 | 45.56622 | 8.89085 | 8341 ft | 270 kts | 169° |
| 2026-05-04 17:52 | 45.54749 | 8.89594 | 7964 ft | 269 kts | 169° |
| 2026-05-04 17:52 | 45.52938 | 8.90088 | 7587 ft | 269 kts | 169° |
| 2026-05-04 17:53 | 45.51101 | 8.90588 | 7124 ft | 271 kts | 169° |
| 2026-05-04 17:53 | 45.49262 | 8.91088 | 6583 ft | 266 kts | 169° |
| 2026-05-04 17:53 | 45.47454 | 8.91582 | 6023 ft | 262 kts | 169° |
| 2026-05-04 17:53 | 45.45677 | 8.92068 | 5449 ft | 259 kts | 169° |
| 2026-05-04 17:54 | 45.43911 | 8.92546 | 5017 ft | 258 kts | 169° |
| 2026-05-04 17:54 | 45.42157 | 8.93010 | 4746 ft | 252 kts | 170° |
| 2026-05-04 17:54 | 45.40477 | 8.93460 | 4608 ft | 238 kts | 170° |
| 2026-05-04 17:54 | 45.38893 | 8.93715 | 4401 ft | 224 kts | 188° |
| 2026-05-04 17:55 | 45.37499 | 8.92875 | 4243 ft | 218 kts | 223° |
| 2026-05-04 17:55 | 45.36714 | 8.91083 | 4117 ft | 217 kts | 257° |
| 2026-05-04 17:55 | 45.36792 | 8.88965 | 3988 ft | 218 kts | 289° |
| 2026-05-04 17:55 | 45.37527 | 8.87068 | 3853 ft | 221 kts | 302° |
| 2026-05-04 17:56 | 45.38395 | 8.85273 | 3737 ft | 220 kts | 304° |
| 2026-05-04 17:56 | 45.39279 | 8.83497 | 3632 ft | 220 kts | 303° |
| 2026-05-04 17:56 | 45.40167 | 8.81716 | 3513 ft | 220 kts | 304° |
| 2026-05-04 17:56 | 45.41142 | 8.80052 | 3379 ft | 220 kts | 319° |
| 2026-05-04 17:57 | 45.42481 | 8.79022 | 3251 ft | 220 kts | 343° |
| 2026-05-04 17:57 | 45.43966 | 8.78591 | 3155 ft | 214 kts | 348° |
| 2026-05-04 17:57 | 45.45406 | 8.78199 | 3053 ft | 207 kts | 347° |
| 2026-05-04 17:57 | 45.46798 | 8.77818 | 3004 ft | 199 kts | 347° |
| 2026-05-04 17:58 | 45.48107 | 8.77459 | 3026 ft | 192 kts | 348° |
| 2026-05-04 17:58 | 45.49404 | 8.77102 | 3008 ft | 189 kts | 348° |
| 2026-05-04 17:58 | 45.50709 | 8.76743 | 2852 ft | 188 kts | 348° |
| 2026-05-04 17:58 | 45.51969 | 8.76397 | 2633 ft | 185 kts | 348° |
| 2026-05-04 17:59 | 45.53227 | 8.76051 | 2395 ft | 181 kts | 348° |
| 2026-05-04 17:59 | 45.54423 | 8.75722 | 2173 ft | 169 kts | 348° |
| 2026-05-04 17:59 | 45.56580 | 8.75128 | 1744 ft | 146 kts | 347° |
| 2026-05-04 18:00 | 45.57562 | 8.74857 | 1543 ft | 143 kts | 347° |
| 2026-05-04 18:00 | 45.58534 | 8.74585 | 1326 ft | 142 kts | 348° |
| 2026-05-04 18:00 | 45.59490 | 8.74318 | 1143 ft | 142 kts | 349° |
| 2026-05-04 18:00 | 45.60476 | 8.74054 | 1005 ft | 142 kts | 349° |
| 2026-05-04 18:01 | 45.61446 | 8.73780 | 827 ft | 142 kts | 349° |
| 2026-05-04 18:01 | 45.62391 | 8.73530 | 739 ft | 127 kts | 349° |
| 2026-05-04 18:01 | 45.63133 | 8.73323 | 736 ft | 95 kts | 349° |
| 2026-05-04 18:02 | 45.64024 | 8.73067 | 738 ft | 33 kts | 350° |
| 2026-05-04 18:02 | 45.64239 | 8.73008 | 736 ft | 26 kts | 341° |
| 2026-05-04 18:02 | 45.64335 | 8.72853 | 736 ft | 22 kts | 301° |
| 2026-05-04 18:02 | 45.64415 | 8.72682 | 736 ft | 14 kts | 310° |
| 2026-05-04 18:03 | 45.64477 | 8.72618 | 736 ft | 10 kts | 268° |
| 2026-05-04 18:03 | 45.64461 | 8.72531 | 736 ft | 9 kts | 256° |
| 2026-05-04 18:03 | 45.64450 | 8.72444 | 736 ft | 8 kts | 261° |
| 2026-05-04 18:03 | 45.64438 | 8.72352 | 736 ft | 9 kts | 258° |
| 2026-05-04 18:04 | 45.64426 | 8.72270 | 735 ft | 8 kts | 258° |
| 2026-05-04 18:04 | 45.64422 | 8.72201 | 736 ft | 7 kts | 285° |
| 2026-05-04 18:04 | 45.64480 | 8.72191 | 736 ft | 4 kts | 38° |
| 2026-05-04 18:05 | 45.64500 | 8.72213 | 736 ft | 3 kts | 36° |
| 2026-05-04 18:05 | 45.64514 | 8.72227 | 735 ft | 0 kts | 36° |